sensor_id;sensor_type;location;lat;lon;timestamp;P1;durP1;ratioP1;P2;durP2;ratioP2
26946;SDS011;14501;52.282;10.560;2023-06-10T00:01:32;5.53;;;2.83;;
26946;SDS011;14501;52.282;10.560;2023-06-10T00:04:01;5.22;;;2.75;;
26946;SDS011;14501;52.282;10.560;2023-06-10T00:06:27;5.13;;;2.58;;
26946;SDS011;14501;52.282;10.560;2023-06-10T00:09:04;5.75;;;3.20;;
26946;SDS011;14501;52.282;10.560;2023-06-10T00:11:31;10.02;;;3.33;;
26946;SDS011;14501;52.282;10.560;2023-06-10T00:13:57;9.52;;;2.92;;
26946;SDS011;14501;52.282;10.560;2023-06-10T00:16:23;5.97;;;3.08;;
26946;SDS011;14501;52.282;10.560;2023-06-10T00:18:49;6.88;;;3.45;;
26946;SDS011;14501;52.282;10.560;2023-06-10T00:21:16;5.57;;;3.05;;
26946;SDS011;14501;52.282;10.560;2023-06-10T00:23:42;5.60;;;2.80;;
26946;SDS011;14501;52.282;10.560;2023-06-10T00:26:08;6.53;;;2.75;;
26946;SDS011;14501;52.282;10.560;2023-06-10T00:28:34;5.93;;;2.72;;
26946;SDS011;14501;52.282;10.560;2023-06-10T00:31:00;10.15;;;3.15;;
26946;SDS011;14501;52.282;10.560;2023-06-10T00:33:26;4.78;;;3.42;;
26946;SDS011;14501;52.282;10.560;2023-06-10T00:35:52;9.20;;;3.28;;
26946;SDS011;14501;52.282;10.560;2023-06-10T00:38:18;5.95;;;3.30;;
26946;SDS011;14501;52.282;10.560;2023-06-10T00:40:44;5.68;;;3.67;;
26946;SDS011;14501;52.282;10.560;2023-06-10T00:43:10;5.45;;;3.65;;
26946;SDS011;14501;52.282;10.560;2023-06-10T00:45:35;8.88;;;3.78;;
26946;SDS011;14501;52.282;10.560;2023-06-10T00:48:01;9.35;;;3.80;;
26946;SDS011;14501;52.282;10.560;2023-06-10T00:50:28;7.47;;;3.97;;
26946;SDS011;14501;52.282;10.560;2023-06-10T00:52:54;7.70;;;3.58;;
26946;SDS011;14501;52.282;10.560;2023-06-10T00:55:20;7.28;;;3.53;;
26946;SDS011;14501;52.282;10.560;2023-06-10T00:57:46;7.53;;;3.67;;
26946;SDS011;14501;52.282;10.560;2023-06-10T01:00:16;9.43;;;3.67;;
26946;SDS011;14501;52.282;10.560;2023-06-10T01:02:42;8.43;;;3.58;;
26946;SDS011;14501;52.282;10.560;2023-06-10T01:05:08;10.07;;;4.35;;
26946;SDS011;14501;52.282;10.560;2023-06-10T01:07:40;8.40;;;3.95;;
26946;SDS011;14501;52.282;10.560;2023-06-10T01:10:48;8.25;;;3.85;;
26946;SDS011;14501;52.282;10.560;2023-06-10T01:13:18;10.02;;;4.50;;
26946;SDS011;14501;52.282;10.560;2023-06-10T01:15:48;10.98;;;4.00;;
26946;SDS011;14501;52.282;10.560;2023-06-10T01:18:15;10.52;;;4.82;;
26946;SDS011;14501;52.282;10.560;2023-06-10T01:20:42;10.15;;;4.50;;
26946;SDS011;14501;52.282;10.560;2023-06-10T01:23:09;7.35;;;4.20;;
26946;SDS011;14501;52.282;10.560;2023-06-10T01:25:45;9.45;;;4.40;;
26946;SDS011;14501;52.282;10.560;2023-06-10T01:28:25;8.40;;;4.70;;
26946;SDS011;14501;52.282;10.560;2023-06-10T01:34:07;8.38;;;4.57;;
26946;SDS011;14501;52.282;10.560;2023-06-10T01:36:36;8.45;;;4.50;;
26946;SDS011;14501;52.282;10.560;2023-06-10T01:39:03;8.48;;;4.07;;
26946;SDS011;14501;52.282;10.560;2023-06-10T01:41:30;9.30;;;4.78;;
26946;SDS011;14501;52.282;10.560;2023-06-10T01:43:57;13.60;;;4.55;;
26946;SDS011;14501;52.282;10.560;2023-06-10T01:46:22;7.25;;;3.95;;
26946;SDS011;14501;52.282;10.560;2023-06-10T01:48:48;6.60;;;4.40;;
26946;SDS011;14501;52.282;10.560;2023-06-10T01:51:14;8.57;;;5.15;;
26946;SDS011;14501;52.282;10.560;2023-06-10T01:53:40;9.90;;;4.60;;
26946;SDS011;14501;52.282;10.560;2023-06-10T01:56:05;8.35;;;4.65;;
26946;SDS011;14501;52.282;10.560;2023-06-10T01:58:31;10.07;;;4.72;;
26946;SDS011;14501;52.282;10.560;2023-06-10T02:00:57;6.63;;;4.35;;
26946;SDS011;14501;52.282;10.560;2023-06-10T02:03:22;12.73;;;5.00;;
26946;SDS011;14501;52.282;10.560;2023-06-10T02:05:48;9.90;;;4.97;;
26946;SDS011;14501;52.282;10.560;2023-06-10T02:08:14;9.52;;;5.20;;
26946;SDS011;14501;52.282;10.560;2023-06-10T02:10:40;8.80;;;4.95;;
26946;SDS011;14501;52.282;10.560;2023-06-10T02:13:05;10.40;;;4.90;;
26946;SDS011;14501;52.282;10.560;2023-06-10T02:15:31;10.10;;;5.03;;
26946;SDS011;14501;52.282;10.560;2023-06-10T02:17:57;12.20;;;5.25;;
26946;SDS011;14501;52.282;10.560;2023-06-10T02:20:22;10.82;;;5.70;;
26946;SDS011;14501;52.282;10.560;2023-06-10T02:22:48;9.77;;;4.93;;
26946;SDS011;14501;52.282;10.560;2023-06-10T02:25:14;8.55;;;5.25;;
26946;SDS011;14501;52.282;10.560;2023-06-10T02:27:40;11.02;;;5.15;;
26946;SDS011;14501;52.282;10.560;2023-06-10T02:30:06;11.20;;;5.05;;
26946;SDS011;14501;52.282;10.560;2023-06-10T02:32:34;6.70;;;5.18;;
26946;SDS011;14501;52.282;10.560;2023-06-10T02:35:00;10.15;;;5.63;;
26946;SDS011;14501;52.282;10.560;2023-06-10T02:37:26;12.68;;;5.38;;
26946;SDS011;14501;52.282;10.560;2023-06-10T02:39:52;8.63;;;5.28;;
26946;SDS011;14501;52.282;10.560;2023-06-10T02:42:17;11.05;;;5.28;;
26946;SDS011;14501;52.282;10.560;2023-06-10T02:44:43;9.18;;;5.72;;
26946;SDS011;14501;52.282;10.560;2023-06-10T02:47:09;11.43;;;5.50;;
26946;SDS011;14501;52.282;10.560;2023-06-10T02:49:34;13.60;;;5.40;;
26946;SDS011;14501;52.282;10.560;2023-06-10T02:52:00;10.13;;;5.70;;
26946;SDS011;14501;52.282;10.560;2023-06-10T02:54:27;11.18;;;6.40;;
26946;SDS011;14501;52.282;10.560;2023-06-10T02:56:52;11.15;;;5.57;;
26946;SDS011;14501;52.282;10.560;2023-06-10T02:59:20;11.50;;;5.72;;
26946;SDS011;14501;52.282;10.560;2023-06-10T03:01:46;10.95;;;6.05;;
26946;SDS011;14501;52.282;10.560;2023-06-10T03:04:12;10.15;;;6.13;;
26946;SDS011;14501;52.282;10.560;2023-06-10T03:06:39;11.32;;;6.10;;
26946;SDS011;14501;52.282;10.560;2023-06-10T03:09:07;15.55;;;5.88;;
26946;SDS011;14501;52.282;10.560;2023-06-10T03:11:33;9.35;;;6.20;;
26946;SDS011;14501;52.282;10.560;2023-06-10T03:13:59;17.80;;;6.13;;
26946;SDS011;14501;52.282;10.560;2023-06-10T03:16:24;13.13;;;6.90;;
26946;SDS011;14501;52.282;10.560;2023-06-10T03:18:50;14.95;;;5.97;;
26946;SDS011;14501;52.282;10.560;2023-06-10T03:21:16;14.25;;;6.47;;
26946;SDS011;14501;52.282;10.560;2023-06-10T03:23:42;12.82;;;6.18;;
26946;SDS011;14501;52.282;10.560;2023-06-10T03:26:08;10.63;;;5.35;;
26946;SDS011;14501;52.282;10.560;2023-06-10T03:28:35;13.48;;;6.05;;
26946;SDS011;14501;52.282;10.560;2023-06-10T03:31:00;8.35;;;5.40;;
26946;SDS011;14501;52.282;10.560;2023-06-10T03:33:26;11.07;;;6.10;;
26946;SDS011;14501;52.282;10.560;2023-06-10T03:35:52;15.35;;;6.88;;
26946;SDS011;14501;52.282;10.560;2023-06-10T03:38:18;11.15;;;5.63;;
26946;SDS011;14501;52.282;10.560;2023-06-10T03:40:44;11.73;;;6.45;;
26946;SDS011;14501;52.282;10.560;2023-06-10T03:43:10;10.60;;;6.25;;
26946;SDS011;14501;52.282;10.560;2023-06-10T03:45:35;11.00;;;6.15;;
26946;SDS011;14501;52.282;10.560;2023-06-10T03:48:01;14.63;;;6.35;;
26946;SDS011;14501;52.282;10.560;2023-06-10T03:50:28;10.15;;;5.60;;
26946;SDS011;14501;52.282;10.560;2023-06-10T03:52:54;12.57;;;6.70;;
26946;SDS011;14501;52.282;10.560;2023-06-10T03:55:20;12.07;;;6.05;;
26946;SDS011;14501;52.282;10.560;2023-06-10T03:57:46;10.80;;;5.82;;
26946;SDS011;14501;52.282;10.560;2023-06-10T04:00:13;9.38;;;5.95;;
26946;SDS011;14501;52.282;10.560;2023-06-10T04:02:40;11.98;;;5.55;;
26946;SDS011;14501;52.282;10.560;2023-06-10T04:05:14;13.38;;;6.22;;
26946;SDS011;14501;52.282;10.560;2023-06-10T04:07:41;10.70;;;6.15;;
26946;SDS011;14501;52.282;10.560;2023-06-10T04:10:11;14.25;;;5.97;;
26946;SDS011;14501;52.282;10.560;2023-06-10T04:12:37;9.15;;;5.30;;
26946;SDS011;14501;52.282;10.560;2023-06-10T04:15:04;19.85;;;6.13;;
26946;SDS011;14501;52.282;10.560;2023-06-10T04:17:30;14.13;;;5.55;;
26946;SDS011;14501;52.282;10.560;2023-06-10T04:19:56;8.75;;;5.13;;
26946;SDS011;14501;52.282;10.560;2023-06-10T04:22:22;8.02;;;5.07;;
26946;SDS011;14501;52.282;10.560;2023-06-10T04:24:48;7.68;;;5.22;;
26946;SDS011;14501;52.282;10.560;2023-06-10T04:27:14;7.30;;;5.28;;
26946;SDS011;14501;52.282;10.560;2023-06-10T04:29:40;11.90;;;5.05;;
26946;SDS011;14501;52.282;10.560;2023-06-10T04:32:06;10.35;;;4.90;;
26946;SDS011;14501;52.282;10.560;2023-06-10T04:34:35;11.25;;;5.40;;
26946;SDS011;14501;52.282;10.560;2023-06-10T04:37:01;11.65;;;4.68;;
26946;SDS011;14501;52.282;10.560;2023-06-10T04:39:26;12.00;;;5.28;;
26946;SDS011;14501;52.282;10.560;2023-06-10T04:41:52;9.70;;;5.25;;
26946;SDS011;14501;52.282;10.560;2023-06-10T04:44:18;9.80;;;4.63;;
26946;SDS011;14501;52.282;10.560;2023-06-10T04:46:43;11.52;;;5.00;;
26946;SDS011;14501;52.282;10.560;2023-06-10T04:49:09;12.70;;;4.63;;
26946;SDS011;14501;52.282;10.560;2023-06-10T04:51:35;8.68;;;4.72;;
26946;SDS011;14501;52.282;10.560;2023-06-10T04:54:00;11.65;;;4.90;;
26946;SDS011;14501;52.282;10.560;2023-06-10T04:56:29;10.45;;;4.97;;
26946;SDS011;14501;52.282;10.560;2023-06-10T04:58:58;9.57;;;5.18;;
26946;SDS011;14501;52.282;10.560;2023-06-10T05:01:24;8.13;;;4.75;;
26946;SDS011;14501;52.282;10.560;2023-06-10T05:03:50;15.55;;;5.07;;
26946;SDS011;14501;52.282;10.560;2023-06-10T05:06:16;10.77;;;4.72;;
26946;SDS011;14501;52.282;10.560;2023-06-10T05:08:41;7.47;;;4.15;;
26946;SDS011;14501;52.282;10.560;2023-06-10T05:11:07;9.48;;;4.15;;
26946;SDS011;14501;52.282;10.560;2023-06-10T05:13:33;10.60;;;4.40;;
26946;SDS011;14501;52.282;10.560;2023-06-10T05:15:59;8.63;;;4.10;;
26946;SDS011;14501;52.282;10.560;2023-06-10T05:18:24;6.15;;;3.63;;
26946;SDS011;14501;52.282;10.560;2023-06-10T05:20:50;9.15;;;4.07;;
26946;SDS011;14501;52.282;10.560;2023-06-10T05:23:16;9.48;;;4.68;;
26946;SDS011;14501;52.282;10.560;2023-06-10T05:25:42;9.93;;;4.78;;
26946;SDS011;14501;52.282;10.560;2023-06-10T05:28:07;8.15;;;4.03;;
26946;SDS011;14501;52.282;10.560;2023-06-10T05:30:35;8.60;;;4.35;;
26946;SDS011;14501;52.282;10.560;2023-06-10T05:33:01;12.40;;;5.30;;
26946;SDS011;14501;52.282;10.560;2023-06-10T05:35:27;10.85;;;4.72;;
26946;SDS011;14501;52.282;10.560;2023-06-10T05:37:53;11.07;;;4.25;;
26946;SDS011;14501;52.282;10.560;2023-06-10T05:40:18;6.18;;;3.72;;
26946;SDS011;14501;52.282;10.560;2023-06-10T05:42:44;8.55;;;4.15;;
26946;SDS011;14501;52.282;10.560;2023-06-10T05:45:10;7.03;;;4.32;;
26946;SDS011;14501;52.282;10.560;2023-06-10T05:47:35;9.80;;;4.53;;
26946;SDS011;14501;52.282;10.560;2023-06-10T05:50:01;9.30;;;4.57;;
26946;SDS011;14501;52.282;10.560;2023-06-10T05:52:27;10.73;;;4.65;;
26946;SDS011;14501;52.282;10.560;2023-06-10T05:54:53;13.20;;;4.57;;
26946;SDS011;14501;52.282;10.560;2023-06-10T05:57:19;6.30;;;4.13;;
26946;SDS011;14501;52.282;10.560;2023-06-10T05:59:45;8.52;;;4.50;;
26946;SDS011;14501;52.282;10.560;2023-06-10T06:02:10;7.78;;;3.63;;
26946;SDS011;14501;52.282;10.560;2023-06-10T06:04:36;6.70;;;4.22;;
26946;SDS011;14501;52.282;10.560;2023-06-10T06:07:02;5.93;;;3.88;;
26946;SDS011;14501;52.282;10.560;2023-06-10T06:09:28;9.93;;;3.90;;
26946;SDS011;14501;52.282;10.560;2023-06-10T06:11:54;7.20;;;4.18;;
26946;SDS011;14501;52.282;10.560;2023-06-10T06:14:19;6.60;;;3.92;;
26946;SDS011;14501;52.282;10.560;2023-06-10T06:16:45;7.45;;;3.70;;
26946;SDS011;14501;52.282;10.560;2023-06-10T06:19:11;9.85;;;3.78;;
26946;SDS011;14501;52.282;10.560;2023-06-10T06:21:36;8.43;;;4.18;;
26946;SDS011;14501;52.282;10.560;2023-06-10T06:24:02;7.60;;;3.88;;
26946;SDS011;14501;52.282;10.560;2023-06-10T06:26:28;7.78;;;3.78;;
26946;SDS011;14501;52.282;10.560;2023-06-10T06:28:53;6.97;;;3.72;;
26946;SDS011;14501;52.282;10.560;2023-06-10T06:31:19;6.53;;;3.53;;
26946;SDS011;14501;52.282;10.560;2023-06-10T06:33:44;9.10;;;3.63;;
26946;SDS011;14501;52.282;10.560;2023-06-10T06:36:10;5.95;;;3.30;;
26946;SDS011;14501;52.282;10.560;2023-06-10T06:38:36;5.72;;;3.00;;
26946;SDS011;14501;52.282;10.560;2023-06-10T06:41:01;8.40;;;3.50;;
26946;SDS011;14501;52.282;10.560;2023-06-10T06:43:28;8.18;;;3.25;;
26946;SDS011;14501;52.282;10.560;2023-06-10T06:45:56;8.98;;;3.47;;
26946;SDS011;14501;52.282;10.560;2023-06-10T06:48:22;12.65;;;3.72;;
26946;SDS011;14501;52.282;10.560;2023-06-10T06:50:48;8.20;;;3.53;;
26946;SDS011;14501;52.282;10.560;2023-06-10T06:53:13;9.13;;;3.53;;
26946;SDS011;14501;52.282;10.560;2023-06-10T06:55:39;4.28;;;2.85;;
26946;SDS011;14501;52.282;10.560;2023-06-10T06:58:05;8.70;;;3.47;;
26946;SDS011;14501;52.282;10.560;2023-06-10T07:00:30;8.80;;;3.45;;
26946;SDS011;14501;52.282;10.560;2023-06-10T07:02:56;5.93;;;3.25;;
26946;SDS011;14501;52.282;10.560;2023-06-10T07:05:23;6.35;;;3.50;;
26946;SDS011;14501;52.282;10.560;2023-06-10T07:07:51;6.35;;;3.08;;
26946;SDS011;14501;52.282;10.560;2023-06-10T07:10:20;9.85;;;3.58;;
26946;SDS011;14501;52.282;10.560;2023-06-10T07:12:52;7.15;;;3.33;;
26946;SDS011;14501;52.282;10.560;2023-06-10T07:15:18;6.82;;;3.80;;
26946;SDS011;14501;52.282;10.560;2023-06-10T07:17:44;8.45;;;3.15;;
26946;SDS011;14501;52.282;10.560;2023-06-10T07:20:10;8.02;;;3.53;;
26946;SDS011;14501;52.282;10.560;2023-06-10T07:22:36;7.55;;;3.35;;
26946;SDS011;14501;52.282;10.560;2023-06-10T07:25:04;6.18;;;3.03;;
26946;SDS011;14501;52.282;10.560;2023-06-10T07:27:29;9.20;;;3.00;;
26946;SDS011;14501;52.282;10.560;2023-06-10T07:29:55;8.70;;;3.30;;
26946;SDS011;14501;52.282;10.560;2023-06-10T07:32:21;5.82;;;3.58;;
26946;SDS011;14501;52.282;10.560;2023-06-10T07:34:48;7.97;;;3.50;;
26946;SDS011;14501;52.282;10.560;2023-06-10T07:37:14;7.63;;;3.10;;
26946;SDS011;14501;52.282;10.560;2023-06-10T07:39:40;6.22;;;3.38;;
26946;SDS011;14501;52.282;10.560;2023-06-10T07:42:06;6.43;;;3.08;;
26946;SDS011;14501;52.282;10.560;2023-06-10T07:44:32;9.00;;;3.83;;
26946;SDS011;14501;52.282;10.560;2023-06-10T07:46:57;8.63;;;3.70;;
26946;SDS011;14501;52.282;10.560;2023-06-10T07:49:23;6.68;;;3.28;;
26946;SDS011;14501;52.282;10.560;2023-06-10T07:51:49;15.57;;;3.42;;
26946;SDS011;14501;52.282;10.560;2023-06-10T07:54:15;5.00;;;3.30;;
26946;SDS011;14501;52.282;10.560;2023-06-10T07:56:41;5.40;;;3.25;;
26946;SDS011;14501;52.282;10.560;2023-06-10T07:59:06;8.57;;;3.35;;
26946;SDS011;14501;52.282;10.560;2023-06-10T08:01:32;6.72;;;3.22;;
26946;SDS011;14501;52.282;10.560;2023-06-10T08:03:58;7.78;;;3.53;;
26946;SDS011;14501;52.282;10.560;2023-06-10T08:06:23;6.05;;;3.78;;
26946;SDS011;14501;52.282;10.560;2023-06-10T08:08:49;6.57;;;3.65;;
26946;SDS011;14501;52.282;10.560;2023-06-10T08:11:16;8.45;;;3.42;;
26946;SDS011;14501;52.282;10.560;2023-06-10T08:13:41;7.45;;;3.22;;
26946;SDS011;14501;52.282;10.560;2023-06-10T08:16:07;6.35;;;3.58;;
26946;SDS011;14501;52.282;10.560;2023-06-10T08:18:32;7.50;;;3.60;;
26946;SDS011;14501;52.282;10.560;2023-06-10T08:20:58;3.78;;;3.22;;
26946;SDS011;14501;52.282;10.560;2023-06-10T08:23:24;8.32;;;3.65;;
26946;SDS011;14501;52.282;10.560;2023-06-10T08:25:50;6.90;;;2.90;;
26946;SDS011;14501;52.282;10.560;2023-06-10T08:28:16;7.43;;;3.78;;
26946;SDS011;14501;52.282;10.560;2023-06-10T08:30:41;5.25;;;3.45;;
26946;SDS011;14501;52.282;10.560;2023-06-10T08:33:07;8.50;;;3.85;;
26946;SDS011;14501;52.282;10.560;2023-06-10T08:35:32;9.07;;;3.53;;
26946;SDS011;14501;52.282;10.560;2023-06-10T08:37:58;8.98;;;3.38;;
26946;SDS011;14501;52.282;10.560;2023-06-10T08:40:24;7.85;;;3.80;;
26946;SDS011;14501;52.282;10.560;2023-06-10T08:42:56;10.00;;;3.45;;
26946;SDS011;14501;52.282;10.560;2023-06-10T08:45:32;4.72;;;3.20;;
26946;SDS011;14501;52.282;10.560;2023-06-10T08:48:02;5.20;;;3.30;;
26946;SDS011;14501;52.282;10.560;2023-06-10T08:50:35;5.85;;;3.40;;
26946;SDS011;14501;52.282;10.560;2023-06-10T08:53:04;8.65;;;3.92;;
26946;SDS011;14501;52.282;10.560;2023-06-10T08:55:32;6.93;;;4.03;;
26946;SDS011;14501;52.282;10.560;2023-06-10T08:58:01;6.40;;;3.60;;
26946;SDS011;14501;52.282;10.560;2023-06-10T09:00:28;7.60;;;3.58;;
26946;SDS011;14501;52.282;10.560;2023-06-10T09:02:55;7.63;;;3.08;;
26946;SDS011;14501;52.282;10.560;2023-06-10T09:05:22;11.10;;;3.55;;
26946;SDS011;14501;52.282;10.560;2023-06-10T09:07:48;8.43;;;4.00;;
26946;SDS011;14501;52.282;10.560;2023-06-10T09:10:16;10.57;;;3.30;;
26946;SDS011;14501;52.282;10.560;2023-06-10T09:12:41;6.53;;;3.30;;
26946;SDS011;14501;52.282;10.560;2023-06-10T09:15:07;6.13;;;3.88;;
26946;SDS011;14501;52.282;10.560;2023-06-10T09:17:34;6.55;;;3.67;;
26946;SDS011;14501;52.282;10.560;2023-06-10T09:20:02;5.35;;;3.65;;
26946;SDS011;14501;52.282;10.560;2023-06-10T09:22:27;6.65;;;3.58;;
26946;SDS011;14501;52.282;10.560;2023-06-10T09:25:10;4.90;;;3.15;;
26946;SDS011;14501;52.282;10.560;2023-06-10T09:27:55;5.78;;;3.30;;
26946;SDS011;14501;52.282;10.560;2023-06-10T09:30:28;5.13;;;3.50;;
26946;SDS011;14501;52.282;10.560;2023-06-10T09:32:59;10.55;;;3.80;;
26946;SDS011;14501;52.282;10.560;2023-06-10T09:35:27;6.80;;;3.80;;
26946;SDS011;14501;52.282;10.560;2023-06-10T09:37:54;4.93;;;3.65;;
26946;SDS011;14501;52.282;10.560;2023-06-10T09:40:21;5.70;;;3.60;;
26946;SDS011;14501;52.282;10.560;2023-06-10T09:42:47;5.78;;;3.88;;
26946;SDS011;14501;52.282;10.560;2023-06-10T09:45:24;6.85;;;4.30;;
26946;SDS011;14501;52.282;10.560;2023-06-10T09:47:56;7.20;;;3.75;;
26946;SDS011;14501;52.282;10.560;2023-06-10T09:50:22;5.45;;;3.72;;
26946;SDS011;14501;52.282;10.560;2023-06-10T09:52:48;7.78;;;4.38;;
26946;SDS011;14501;52.282;10.560;2023-06-10T09:55:16;5.57;;;4.32;;
26946;SDS011;14501;52.282;10.560;2023-06-10T09:57:42;5.85;;;3.60;;
26946;SDS011;14501;52.282;10.560;2023-06-10T10:00:12;6.10;;;3.63;;
26946;SDS011;14501;52.282;10.560;2023-06-10T10:02:52;9.73;;;4.07;;
26946;SDS011;14501;52.282;10.560;2023-06-10T10:05:19;6.20;;;3.92;;
26946;SDS011;14501;52.282;10.560;2023-06-10T10:07:46;4.30;;;3.55;;
26946;SDS011;14501;52.282;10.560;2023-06-10T10:10:13;6.60;;;4.20;;
26946;SDS011;14501;52.282;10.560;2023-06-10T10:12:40;6.22;;;3.78;;
26946;SDS011;14501;52.282;10.560;2023-06-10T10:15:06;6.15;;;3.83;;
26946;SDS011;14501;52.282;10.560;2023-06-10T10:20:34;7.13;;;3.67;;
26946;SDS011;14501;52.282;10.560;2023-06-10T10:23:08;7.40;;;4.28;;
26946;SDS011;14501;52.282;10.560;2023-06-10T10:25:37;4.47;;;3.92;;
26946;SDS011;14501;52.282;10.560;2023-06-10T10:28:09;5.18;;;4.00;;
26946;SDS011;14501;52.282;10.560;2023-06-10T10:30:40;7.63;;;3.97;;
26946;SDS011;14501;52.282;10.560;2023-06-10T10:33:18;7.18;;;4.32;;
26946;SDS011;14501;52.282;10.560;2023-06-10T10:35:48;7.85;;;4.28;;
26946;SDS011;14501;52.282;10.560;2023-06-10T10:38:14;6.80;;;3.97;;
26946;SDS011;14501;52.282;10.560;2023-06-10T10:40:40;7.82;;;4.20;;
26946;SDS011;14501;52.282;10.560;2023-06-10T10:43:06;7.75;;;4.40;;
26946;SDS011;14501;52.282;10.560;2023-06-10T10:45:33;8.38;;;4.15;;
26946;SDS011;14501;52.282;10.560;2023-06-10T10:48:01;9.77;;;4.13;;
26946;SDS011;14501;52.282;10.560;2023-06-10T10:50:37;6.13;;;4.25;;
26946;SDS011;14501;52.282;10.560;2023-06-10T10:53:04;5.72;;;4.38;;
26946;SDS011;14501;52.282;10.560;2023-06-10T10:55:30;8.52;;;4.45;;
26946;SDS011;14501;52.282;10.560;2023-06-10T10:58:02;8.10;;;4.22;;
26946;SDS011;14501;52.282;10.560;2023-06-10T11:00:33;6.45;;;4.55;;
26946;SDS011;14501;52.282;10.560;2023-06-10T11:05:35;6.20;;;4.35;;
26946;SDS011;14501;52.282;10.560;2023-06-10T11:08:01;7.57;;;4.13;;
26946;SDS011;14501;52.282;10.560;2023-06-10T11:10:30;11.90;;;5.15;;
26946;SDS011;14501;52.282;10.560;2023-06-10T11:12:57;6.22;;;4.22;;
26946;SDS011;14501;52.282;10.560;2023-06-10T11:15:29;4.95;;;4.43;;
26946;SDS011;14501;52.282;10.560;2023-06-10T11:20:56;5.82;;;4.47;;
26946;SDS011;14501;52.282;10.560;2023-06-10T11:31:21;5.05;;;4.47;;
26946;SDS011;14501;52.282;10.560;2023-06-10T11:33:48;7.43;;;4.93;;
26946;SDS011;14501;52.282;10.560;2023-06-10T11:36:24;11.02;;;5.32;;
26946;SDS011;14501;52.282;10.560;2023-06-10T11:38:57;8.95;;;5.15;;
26946;SDS011;14501;52.282;10.560;2023-06-10T11:41:28;7.22;;;4.68;;
26946;SDS011;14501;52.282;10.560;2023-06-10T11:43:55;8.13;;;4.95;;
26946;SDS011;14501;52.282;10.560;2023-06-10T11:46:22;8.75;;;5.18;;
26946;SDS011;14501;52.282;10.560;2023-06-10T11:48:49;8.23;;;5.40;;
26946;SDS011;14501;52.282;10.560;2023-06-10T11:51:18;7.00;;;5.00;;
26946;SDS011;14501;52.282;10.560;2023-06-10T11:53:45;6.63;;;4.93;;
26946;SDS011;14501;52.282;10.560;2023-06-10T11:56:11;8.57;;;5.00;;
26946;SDS011;14501;52.282;10.560;2023-06-10T11:58:37;7.45;;;4.22;;
26946;SDS011;14501;52.282;10.560;2023-06-10T12:01:08;6.07;;;5.03;;
26946;SDS011;14501;52.282;10.560;2023-06-10T12:03:37;6.88;;;5.45;;
26946;SDS011;14501;52.282;10.560;2023-06-10T12:08:30;9.40;;;5.35;;
26946;SDS011;14501;52.282;10.560;2023-06-10T12:10:56;8.90;;;5.55;;
26946;SDS011;14501;52.282;10.560;2023-06-10T12:13:23;11.27;;;5.57;;
26946;SDS011;14501;52.282;10.560;2023-06-10T12:15:51;6.32;;;4.93;;
26946;SDS011;14501;52.282;10.560;2023-06-10T12:18:17;8.60;;;5.13;;
26946;SDS011;14501;52.282;10.560;2023-06-10T12:20:47;8.05;;;5.45;;
26946;SDS011;14501;52.282;10.560;2023-06-10T12:23:14;6.00;;;5.18;;
26946;SDS011;14501;52.282;10.560;2023-06-10T12:25:49;7.82;;;5.10;;
26946;SDS011;14501;52.282;10.560;2023-06-10T12:28:22;11.48;;;5.50;;
26946;SDS011;14501;52.282;10.560;2023-06-10T12:30:49;6.80;;;5.05;;
26946;SDS011;14501;52.282;10.560;2023-06-10T12:33:21;9.48;;;5.22;;
26946;SDS011;14501;52.282;10.560;2023-06-10T12:35:50;5.57;;;4.90;;
26946;SDS011;14501;52.282;10.560;2023-06-10T12:38:23;6.03;;;5.10;;
26946;SDS011;14501;52.282;10.560;2023-06-10T12:40:50;8.05;;;5.35;;
26946;SDS011;14501;52.282;10.560;2023-06-10T12:43:19;6.82;;;5.53;;
26946;SDS011;14501;52.282;10.560;2023-06-10T12:45:46;7.93;;;5.57;;
26946;SDS011;14501;52.282;10.560;2023-06-10T12:50:49;6.80;;;4.95;;
26946;SDS011;14501;52.282;10.560;2023-06-10T12:53:17;8.65;;;4.78;;
26946;SDS011;14501;52.282;10.560;2023-06-10T12:55:43;7.07;;;4.95;;
26946;SDS011;14501;52.282;10.560;2023-06-10T12:58:10;9.82;;;5.28;;
26946;SDS011;14501;52.282;10.560;2023-06-10T13:00:36;7.13;;;4.82;;
26946;SDS011;14501;52.282;10.560;2023-06-10T13:03:02;8.27;;;4.68;;
26946;SDS011;14501;52.282;10.560;2023-06-10T13:05:30;9.45;;;5.35;;
26946;SDS011;14501;52.282;10.560;2023-06-10T13:07:56;7.63;;;5.80;;
26946;SDS011;14501;52.282;10.560;2023-06-10T13:10:23;8.48;;;5.53;;
26946;SDS011;14501;52.282;10.560;2023-06-10T13:12:49;7.50;;;5.47;;
26946;SDS011;14501;52.282;10.560;2023-06-10T13:15:15;9.27;;;5.93;;
26946;SDS011;14501;52.282;10.560;2023-06-10T13:17:44;7.70;;;5.05;;
26946;SDS011;14501;52.282;10.560;2023-06-10T13:20:14;9.05;;;4.90;;
26946;SDS011;14501;52.282;10.560;2023-06-10T13:22:41;6.55;;;4.63;;
26946;SDS011;14501;52.282;10.560;2023-06-10T13:25:07;7.65;;;5.10;;
26946;SDS011;14501;52.282;10.560;2023-06-10T13:27:33;5.97;;;4.53;;
26946;SDS011;14501;52.282;10.560;2023-06-10T13:30:00;6.13;;;4.85;;
26946;SDS011;14501;52.282;10.560;2023-06-10T13:32:26;7.40;;;5.10;;
26946;SDS011;14501;52.282;10.560;2023-06-10T13:34:51;9.45;;;5.03;;
26946;SDS011;14501;52.282;10.560;2023-06-10T13:37:18;7.97;;;4.88;;
26946;SDS011;14501;52.282;10.560;2023-06-10T13:39:44;6.45;;;4.90;;
26946;SDS011;14501;52.282;10.560;2023-06-10T13:42:13;8.20;;;4.80;;
26946;SDS011;14501;52.282;10.560;2023-06-10T13:44:39;7.40;;;5.57;;
26946;SDS011;14501;52.282;10.560;2023-06-10T13:47:05;10.10;;;5.10;;
26946;SDS011;14501;52.282;10.560;2023-06-10T13:49:31;7.00;;;5.18;;
26946;SDS011;14501;52.282;10.560;2023-06-10T13:51:57;7.25;;;4.95;;
26946;SDS011;14501;52.282;10.560;2023-06-10T13:54:22;19.17;;;13.43;;
26946;SDS011;14501;52.282;10.560;2023-06-10T13:56:48;17.00;;;11.40;;
26946;SDS011;14501;52.282;10.560;2023-06-10T13:59:14;16.77;;;8.68;;
26946;SDS011;14501;52.282;10.560;2023-06-10T14:01:39;29.05;;;13.82;;
26946;SDS011;14501;52.282;10.560;2023-06-10T14:04:06;17.67;;;9.95;;
26946;SDS011;14501;52.282;10.560;2023-06-10T14:06:32;6.10;;;5.47;;
26946;SDS011;14501;52.282;10.560;2023-06-10T14:08:58;6.05;;;5.28;;
26946;SDS011;14501;52.282;10.560;2023-06-10T14:11:24;7.72;;;5.03;;
26946;SDS011;14501;52.282;10.560;2023-06-10T14:13:50;5.13;;;4.63;;
26946;SDS011;14501;52.282;10.560;2023-06-10T14:16:16;6.65;;;4.80;;
26946;SDS011;14501;52.282;10.560;2023-06-10T14:18:41;7.22;;;5.32;;
26946;SDS011;14501;52.282;10.560;2023-06-10T14:21:07;9.40;;;5.13;;
26946;SDS011;14501;52.282;10.560;2023-06-10T14:23:32;8.07;;;5.65;;
26946;SDS011;14501;52.282;10.560;2023-06-10T14:25:58;5.28;;;4.53;;
26946;SDS011;14501;52.282;10.560;2023-06-10T14:28:24;7.40;;;5.47;;
26946;SDS011;14501;52.282;10.560;2023-06-10T14:30:51;7.18;;;5.47;;
26946;SDS011;14501;52.282;10.560;2023-06-10T14:33:17;8.75;;;5.70;;
26946;SDS011;14501;52.282;10.560;2023-06-10T14:35:43;9.82;;;4.97;;
26946;SDS011;14501;52.282;10.560;2023-06-10T14:38:08;7.60;;;4.93;;
26946;SDS011;14501;52.282;10.560;2023-06-10T14:40:34;6.43;;;5.18;;
26946;SDS011;14501;52.282;10.560;2023-06-10T14:43:00;8.38;;;5.32;;
26946;SDS011;14501;52.282;10.560;2023-06-10T14:45:29;7.55;;;5.35;;
26946;SDS011;14501;52.282;10.560;2023-06-10T14:47:54;7.25;;;5.47;;
26946;SDS011;14501;52.282;10.560;2023-06-10T14:50:20;6.15;;;5.20;;
26946;SDS011;14501;52.282;10.560;2023-06-10T14:52:46;6.38;;;5.75;;
26946;SDS011;14501;52.282;10.560;2023-06-10T14:55:11;6.53;;;5.30;;